sensor_id;sensor_type;location;lat;lon;timestamp;P1;durP1;ratioP1;P2;durP2;ratioP2
72060;SDS011;59925;52.136;5.420;2022-07-23T00:01:04;3.40;;;1.00;;
72060;SDS011;59925;52.136;5.420;2022-07-23T00:03:30;1.83;;;0.90;;
72060;SDS011;59925;52.136;5.420;2022-07-23T00:05:57;1.45;;;1.00;;
72060;SDS011;59925;52.136;5.420;2022-07-23T00:08:23;5.15;;;1.17;;
72060;SDS011;59925;52.136;5.420;2022-07-23T00:10:50;2.13;;;1.20;;
72060;SDS011;59925;52.136;5.420;2022-07-23T00:13:16;1.77;;;1.10;;
72060;SDS011;59925;52.136;5.420;2022-07-23T00:15:43;2.28;;;1.27;;
72060;SDS011;59925;52.136;5.420;2022-07-23T00:18:09;2.75;;;1.20;;
72060;SDS011;59925;52.136;5.420;2022-07-23T00:20:36;2.42;;;1.10;;
72060;SDS011;59925;52.136;5.420;2022-07-23T00:23:02;3.53;;;1.47;;
72060;SDS011;59925;52.136;5.420;2022-07-23T00:25:29;4.13;;;1.20;;
72060;SDS011;59925;52.136;5.420;2022-07-23T00:27:57;3.00;;;1.50;;
72060;SDS011;59925;52.136;5.420;2022-07-23T00:30:24;5.05;;;1.42;;
72060;SDS011;59925;52.136;5.420;2022-07-23T00:32:54;5.38;;;1.83;;
72060;SDS011;59925;52.136;5.420;2022-07-23T00:35:24;2.33;;;1.80;;
72060;SDS011;59925;52.136;5.420;2022-07-23T00:37:51;5.20;;;1.67;;
72060;SDS011;59925;52.136;5.420;2022-07-23T00:40:19;5.30;;;1.90;;
72060;SDS011;59925;52.136;5.420;2022-07-23T00:42:46;5.10;;;1.73;;
72060;SDS011;59925;52.136;5.420;2022-07-23T00:45:13;2.90;;;1.67;;
72060;SDS011;59925;52.136;5.420;2022-07-23T00:47:39;2.10;;;1.47;;
72060;SDS011;59925;52.136;5.420;2022-07-23T00:50:06;3.47;;;1.50;;
72060;SDS011;59925;52.136;5.420;2022-07-23T00:52:34;3.65;;;1.88;;
72060;SDS011;59925;52.136;5.420;2022-07-23T00:55:02;2.28;;;1.70;;
72060;SDS011;59925;52.136;5.420;2022-07-23T00:57:30;3.50;;;1.75;;
72060;SDS011;59925;52.136;5.420;2022-07-23T00:59:56;5.23;;;1.73;;
72060;SDS011;59925;52.136;5.420;2022-07-23T01:02:24;4.05;;;2.08;;
72060;SDS011;59925;52.136;5.420;2022-07-23T01:04:52;4.22;;;1.70;;
72060;SDS011;59925;52.136;5.420;2022-07-23T01:07:19;4.63;;;1.92;;
72060;SDS011;59925;52.136;5.420;2022-07-23T01:09:46;3.72;;;1.75;;
72060;SDS011;59925;52.136;5.420;2022-07-23T01:12:13;3.63;;;2.03;;
72060;SDS011;59925;52.136;5.420;2022-07-23T01:14:39;3.42;;;2.00;;
72060;SDS011;59925;52.136;5.420;2022-07-23T01:17:06;3.67;;;1.95;;
72060;SDS011;59925;52.136;5.420;2022-07-23T01:19:32;3.17;;;1.70;;
72060;SDS011;59925;52.136;5.420;2022-07-23T01:21:58;2.08;;;1.55;;
72060;SDS011;59925;52.136;5.420;2022-07-23T01:24:28;3.83;;;1.80;;
72060;SDS011;59925;52.136;5.420;2022-07-23T01:26:55;4.60;;;1.60;;
72060;SDS011;59925;52.136;5.420;2022-07-23T01:29:21;2.25;;;1.55;;
72060;SDS011;59925;52.136;5.420;2022-07-23T01:31:48;4.15;;;1.52;;
72060;SDS011;59925;52.136;5.420;2022-07-23T01:34:14;4.85;;;1.70;;
72060;SDS011;59925;52.136;5.420;2022-07-23T01:36:41;2.50;;;1.30;;
72060;SDS011;59925;52.136;5.420;2022-07-23T01:39:07;3.15;;;1.50;;
72060;SDS011;59925;52.136;5.420;2022-07-23T01:41:34;2.13;;;1.40;;
72060;SDS011;59925;52.136;5.420;2022-07-23T01:44:00;4.10;;;1.50;;
72060;SDS011;59925;52.136;5.420;2022-07-23T01:46:27;3.88;;;1.42;;
72060;SDS011;59925;52.136;5.420;2022-07-23T01:48:54;3.00;;;1.80;;
72060;SDS011;59925;52.136;5.420;2022-07-23T01:51:20;3.17;;;1.80;;
72060;SDS011;59925;52.136;5.420;2022-07-23T01:53:47;3.28;;;1.63;;
72060;SDS011;59925;52.136;5.420;2022-07-23T01:56:13;4.28;;;1.88;;
72060;SDS011;59925;52.136;5.420;2022-07-23T01:58:41;3.42;;;1.67;;
72060;SDS011;59925;52.136;5.420;2022-07-23T02:01:08;3.50;;;1.90;;
72060;SDS011;59925;52.136;5.420;2022-07-23T02:03:34;3.20;;;2.05;;
72060;SDS011;59925;52.136;5.420;2022-07-23T02:06:00;2.55;;;1.83;;
72060;SDS011;59925;52.136;5.420;2022-07-23T02:08:27;3.30;;;1.95;;
72060;SDS011;59925;52.136;5.420;2022-07-23T02:10:53;3.45;;;1.67;;
72060;SDS011;59925;52.136;5.420;2022-07-23T02:13:19;3.10;;;1.60;;
72060;SDS011;59925;52.136;5.420;2022-07-23T02:15:46;4.00;;;1.65;;
72060;SDS011;59925;52.136;5.420;2022-07-23T02:18:13;2.90;;;1.48;;
72060;SDS011;59925;52.136;5.420;2022-07-23T02:20:40;3.72;;;1.65;;
72060;SDS011;59925;52.136;5.420;2022-07-23T02:23:08;4.55;;;1.80;;
72060;SDS011;59925;52.136;5.420;2022-07-23T02:25:34;3.80;;;1.70;;
72060;SDS011;59925;52.136;5.420;2022-07-23T02:28:01;4.07;;;1.98;;
72060;SDS011;59925;52.136;5.420;2022-07-23T02:30:28;3.83;;;2.00;;
72060;SDS011;59925;52.136;5.420;2022-07-23T02:32:54;3.95;;;2.47;;
72060;SDS011;59925;52.136;5.420;2022-07-23T02:35:21;2.17;;;1.58;;
72060;SDS011;59925;52.136;5.420;2022-07-23T02:37:48;3.30;;;1.57;;
72060;SDS011;59925;52.136;5.420;2022-07-23T02:40:16;3.80;;;1.92;;
72060;SDS011;59925;52.136;5.420;2022-07-23T02:42:42;5.53;;;2.20;;
72060;SDS011;59925;52.136;5.420;2022-07-23T02:45:09;3.65;;;2.13;;
72060;SDS011;59925;52.136;5.420;2022-07-23T02:47:36;4.13;;;2.13;;
72060;SDS011;59925;52.136;5.420;2022-07-23T02:50:02;4.70;;;2.33;;
72060;SDS011;59925;52.136;5.420;2022-07-23T02:52:31;4.10;;;2.00;;
72060;SDS011;59925;52.136;5.420;2022-07-23T02:54:57;2.83;;;1.77;;
72060;SDS011;59925;52.136;5.420;2022-07-23T02:57:24;3.20;;;1.83;;
72060;SDS011;59925;52.136;5.420;2022-07-23T02:59:50;3.38;;;1.80;;
72060;SDS011;59925;52.136;5.420;2022-07-23T03:02:17;2.73;;;1.90;;
72060;SDS011;59925;52.136;5.420;2022-07-23T03:04:43;3.90;;;1.60;;
72060;SDS011;59925;52.136;5.420;2022-07-23T03:07:10;2.83;;;1.85;;
72060;SDS011;59925;52.136;5.420;2022-07-23T03:09:36;2.80;;;1.90;;
72060;SDS011;59925;52.136;5.420;2022-07-23T03:12:03;5.07;;;1.98;;
72060;SDS011;59925;52.136;5.420;2022-07-23T03:14:31;3.77;;;1.80;;
72060;SDS011;59925;52.136;5.420;2022-07-23T03:16:58;3.15;;;1.70;;
72060;SDS011;59925;52.136;5.420;2022-07-23T03:19:25;2.88;;;2.00;;
72060;SDS011;59925;52.136;5.420;2022-07-23T03:21:52;3.88;;;2.05;;
72060;SDS011;59925;52.136;5.420;2022-07-23T03:24:19;3.58;;;1.98;;
72060;SDS011;59925;52.136;5.420;2022-07-23T03:26:45;3.53;;;2.10;;
72060;SDS011;59925;52.136;5.420;2022-07-23T03:29:12;6.57;;;2.28;;
72060;SDS011;59925;52.136;5.420;2022-07-23T03:31:38;5.75;;;2.03;;
72060;SDS011;59925;52.136;5.420;2022-07-23T03:34:05;3.78;;;2.20;;
72060;SDS011;59925;52.136;5.420;2022-07-23T03:36:31;4.53;;;2.40;;
72060;SDS011;59925;52.136;5.420;2022-07-23T03:38:58;4.90;;;2.37;;
72060;SDS011;59925;52.136;5.420;2022-07-23T03:41:27;3.92;;;2.08;;
72060;SDS011;59925;52.136;5.420;2022-07-23T03:43:53;3.15;;;2.15;;
72060;SDS011;59925;52.136;5.420;2022-07-23T03:46:20;3.83;;;2.22;;
72060;SDS011;59925;52.136;5.420;2022-07-23T03:48:46;4.65;;;2.08;;
72060;SDS011;59925;52.136;5.420;2022-07-23T03:51:13;3.93;;;2.03;;
72060;SDS011;59925;52.136;5.420;2022-07-23T03:53:39;3.88;;;2.22;;
72060;SDS011;59925;52.136;5.420;2022-07-23T03:56:05;4.32;;;2.00;;
72060;SDS011;59925;52.136;5.420;2022-07-23T03:58:32;7.15;;;2.20;;
72060;SDS011;59925;52.136;5.420;2022-07-23T04:00:58;4.03;;;2.00;;
72060;SDS011;59925;52.136;5.420;2022-07-23T04:03:25;3.93;;;1.90;;
72060;SDS011;59925;52.136;5.420;2022-07-23T04:05:51;4.45;;;1.98;;
72060;SDS011;59925;52.136;5.420;2022-07-23T04:08:18;2.83;;;1.75;;
72060;SDS011;59925;52.136;5.420;2022-07-23T04:10:44;4.18;;;2.00;;
72060;SDS011;59925;52.136;5.420;2022-07-23T04:13:10;6.10;;;2.13;;
72060;SDS011;59925;52.136;5.420;2022-07-23T04:15:37;5.60;;;2.50;;
72060;SDS011;59925;52.136;5.420;2022-07-23T04:18:04;3.65;;;2.08;;
72060;SDS011;59925;52.136;5.420;2022-07-23T04:20:31;3.38;;;2.35;;
72060;SDS011;59925;52.136;5.420;2022-07-23T04:23:05;3.65;;;2.10;;
72060;SDS011;59925;52.136;5.420;2022-07-23T04:25:31;4.05;;;2.10;;
72060;SDS011;59925;52.136;5.420;2022-07-23T04:27:58;4.50;;;2.07;;
72060;SDS011;59925;52.136;5.420;2022-07-23T04:30:24;3.53;;;1.63;;
72060;SDS011;59925;52.136;5.420;2022-07-23T04:32:51;6.60;;;2.00;;
72060;SDS011;59925;52.136;5.420;2022-07-23T04:35:17;4.30;;;1.60;;
72060;SDS011;59925;52.136;5.420;2022-07-23T04:37:44;3.72;;;2.05;;
72060;SDS011;59925;52.136;5.420;2022-07-23T04:40:11;3.27;;;2.20;;
72060;SDS011;59925;52.136;5.420;2022-07-23T04:42:38;3.88;;;2.20;;
72060;SDS011;59925;52.136;5.420;2022-07-23T04:45:05;3.47;;;1.92;;
72060;SDS011;59925;52.136;5.420;2022-07-23T04:47:38;3.15;;;2.10;;
72060;SDS011;59925;52.136;5.420;2022-07-23T04:50:05;3.83;;;1.98;;
72060;SDS011;59925;52.136;5.420;2022-07-23T04:52:31;4.40;;;2.77;;
72060;SDS011;59925;52.136;5.420;2022-07-23T04:54:57;4.13;;;2.40;;
72060;SDS011;59925;52.136;5.420;2022-07-23T04:57:24;4.05;;;2.42;;
72060;SDS011;59925;52.136;5.420;2022-07-23T04:59:50;4.32;;;2.30;;
72060;SDS011;59925;52.136;5.420;2022-07-23T05:02:17;4.60;;;2.42;;
72060;SDS011;59925;52.136;5.420;2022-07-23T05:04:43;2.80;;;1.83;;
72060;SDS011;59925;52.136;5.420;2022-07-23T05:07:10;3.33;;;2.22;;
72060;SDS011;59925;52.136;5.420;2022-07-23T05:09:36;4.75;;;2.17;;
72060;SDS011;59925;52.136;5.420;2022-07-23T05:12:03;3.78;;;2.40;;
72060;SDS011;59925;52.136;5.420;2022-07-23T05:14:29;3.97;;;2.17;;
72060;SDS011;59925;52.136;5.420;2022-07-23T05:16:56;4.47;;;2.47;;
72060;SDS011;59925;52.136;5.420;2022-07-23T05:19:22;4.57;;;2.60;;
72060;SDS011;59925;52.136;5.420;2022-07-23T05:21:50;4.18;;;2.72;;
72060;SDS011;59925;52.136;5.420;2022-07-23T05:24:17;5.97;;;3.05;;
72060;SDS011;59925;52.136;5.420;2022-07-23T05:26:43;4.22;;;3.00;;
72060;SDS011;59925;52.136;5.420;2022-07-23T05:29:10;5.63;;;3.23;;
72060;SDS011;59925;52.136;5.420;2022-07-23T05:31:36;4.38;;;2.72;;
72060;SDS011;59925;52.136;5.420;2022-07-23T05:34:03;5.28;;;2.55;;
72060;SDS011;59925;52.136;5.420;2022-07-23T05:36:30;3.95;;;2.63;;
72060;SDS011;59925;52.136;5.420;2022-07-23T05:38:58;4.75;;;2.97;;
72060;SDS011;59925;52.136;5.420;2022-07-23T05:41:25;6.10;;;3.70;;
72060;SDS011;59925;52.136;5.420;2022-07-23T05:43:52;4.55;;;3.40;;
72060;SDS011;59925;52.136;5.420;2022-07-23T05:46:19;5.78;;;3.17;;
72060;SDS011;59925;52.136;5.420;2022-07-23T05:48:45;6.18;;;2.90;;
72060;SDS011;59925;52.136;5.420;2022-07-23T05:51:19;5.82;;;2.60;;
72060;SDS011;59925;52.136;5.420;2022-07-23T05:53:47;3.43;;;2.20;;
72060;SDS011;59925;52.136;5.420;2022-07-23T05:56:14;3.35;;;2.30;;
72060;SDS011;59925;52.136;5.420;2022-07-23T05:58:40;5.65;;;2.67;;
72060;SDS011;59925;52.136;5.420;2022-07-23T06:01:07;6.25;;;1.85;;
72060;SDS011;59925;52.136;5.420;2022-07-23T06:03:33;5.65;;;1.75;;
72060;SDS011;59925;52.136;5.420;2022-07-23T06:06:00;3.70;;;1.70;;
72060;SDS011;59925;52.136;5.420;2022-07-23T06:08:26;4.97;;;1.75;;
72060;SDS011;59925;52.136;5.420;2022-07-23T06:10:53;3.75;;;1.90;;
72060;SDS011;59925;52.136;5.420;2022-07-23T06:13:19;4.57;;;1.70;;
72060;SDS011;59925;52.136;5.420;2022-07-23T06:15:46;3.05;;;1.70;;
72060;SDS011;59925;52.136;5.420;2022-07-23T06:18:12;2.83;;;1.53;;
72060;SDS011;59925;52.136;5.420;2022-07-23T06:20:39;3.15;;;1.70;;
72060;SDS011;59925;52.136;5.420;2022-07-23T06:23:05;5.47;;;1.75;;
72060;SDS011;59925;52.136;5.420;2022-07-23T06:25:32;2.85;;;1.48;;
72060;SDS011;59925;52.136;5.420;2022-07-23T06:27:58;3.50;;;1.70;;
72060;SDS011;59925;52.136;5.420;2022-07-23T06:30:26;3.93;;;2.10;;
72060;SDS011;59925;52.136;5.420;2022-07-23T06:32:53;3.70;;;2.00;;
72060;SDS011;59925;52.136;5.420;2022-07-23T06:35:19;3.03;;;1.63;;
72060;SDS011;59925;52.136;5.420;2022-07-23T06:37:45;3.85;;;1.40;;
72060;SDS011;59925;52.136;5.420;2022-07-23T06:40:13;3.55;;;1.77;;
72060;SDS011;59925;52.136;5.420;2022-07-23T06:42:40;4.80;;;1.50;;
72060;SDS011;59925;52.136;5.420;2022-07-23T06:45:06;3.42;;;1.60;;
72060;SDS011;59925;52.136;5.420;2022-07-23T06:47:33;2.78;;;1.35;;
72060;SDS011;59925;52.136;5.420;2022-07-23T06:49:59;2.88;;;1.55;;
72060;SDS011;59925;52.136;5.420;2022-07-23T06:52:26;3.22;;;1.58;;
72060;SDS011;59925;52.136;5.420;2022-07-23T06:54:52;3.83;;;1.60;;
72060;SDS011;59925;52.136;5.420;2022-07-23T06:57:19;2.72;;;1.90;;
72060;SDS011;59925;52.136;5.420;2022-07-23T06:59:45;3.47;;;1.23;;
72060;SDS011;59925;52.136;5.420;2022-07-23T07:02:16;2.55;;;1.25;;
72060;SDS011;59925;52.136;5.420;2022-07-23T07:04:42;3.30;;;1.35;;
72060;SDS011;59925;52.136;5.420;2022-07-23T07:07:09;2.63;;;1.50;;
72060;SDS011;59925;52.136;5.420;2022-07-23T07:09:35;3.25;;;1.80;;
72060;SDS011;59925;52.136;5.420;2022-07-23T07:12:02;2.10;;;1.20;;
72060;SDS011;59925;52.136;5.420;2022-07-23T07:14:28;2.58;;;1.10;;
72060;SDS011;59925;52.136;5.420;2022-07-23T07:16:55;1.98;;;1.38;;
72060;SDS011;59925;52.136;5.420;2022-07-23T07:19:21;2.07;;;0.80;;
72060;SDS011;59925;52.136;5.420;2022-07-23T07:21:48;3.05;;;0.95;;
72060;SDS011;59925;52.136;5.420;2022-07-23T07:24:14;3.83;;;1.20;;
72060;SDS011;59925;52.136;5.420;2022-07-23T07:26:40;4.40;;;1.02;;
72060;SDS011;59925;52.136;5.420;2022-07-23T07:29:07;3.47;;;1.00;;
72060;SDS011;59925;52.136;5.420;2022-07-23T07:31:33;4.20;;;0.90;;
72060;SDS011;59925;52.136;5.420;2022-07-23T07:34:00;1.63;;;0.80;;
72060;SDS011;59925;52.136;5.420;2022-07-23T07:36:26;3.85;;;1.00;;
72060;SDS011;59925;52.136;5.420;2022-07-23T07:38:53;2.65;;;0.82;;
72060;SDS011;59925;52.136;5.420;2022-07-23T07:41:20;2.05;;;0.93;;
72060;SDS011;59925;52.136;5.420;2022-07-23T07:43:50;1.60;;;0.90;;
72060;SDS011;59925;52.136;5.420;2022-07-23T07:46:16;1.67;;;0.93;;
72060;SDS011;59925;52.136;5.420;2022-07-23T07:48:43;2.85;;;0.80;;
72060;SDS011;59925;52.136;5.420;2022-07-23T07:51:10;3.42;;;0.93;;
72060;SDS011;59925;52.136;5.420;2022-07-23T07:53:37;1.77;;;0.82;;
72060;SDS011;59925;52.136;5.420;2022-07-23T07:56:03;2.60;;;0.87;;
72060;SDS011;59925;52.136;5.420;2022-07-23T07:58:30;1.58;;;0.80;;
72060;SDS011;59925;52.136;5.420;2022-07-23T08:00:57;2.85;;;1.13;;
72060;SDS011;59925;52.136;5.420;2022-07-23T08:03:23;4.85;;;0.93;;
72060;SDS011;59925;52.136;5.420;2022-07-23T08:05:50;1.80;;;1.42;;
72060;SDS011;59925;52.136;5.420;2022-07-23T08:08:16;2.90;;;1.00;;
72060;SDS011;59925;52.136;5.420;2022-07-23T08:10:43;3.00;;;1.10;;
72060;SDS011;59925;52.136;5.420;2022-07-23T08:13:12;3.05;;;1.00;;
72060;SDS011;59925;52.136;5.420;2022-07-23T08:15:41;2.70;;;0.80;;
72060;SDS011;59925;52.136;5.420;2022-07-23T08:18:08;2.83;;;0.98;;
72060;SDS011;59925;52.136;5.420;2022-07-23T08:20:35;3.00;;;1.10;;
72060;SDS011;59925;52.136;5.420;2022-07-23T08:23:03;2.40;;;0.80;;
72060;SDS011;59925;52.136;5.420;2022-07-23T08:25:38;3.95;;;1.10;;
72060;SDS011;59925;52.136;5.420;2022-07-23T08:28:07;1.45;;;0.73;;
72060;SDS011;59925;52.136;5.420;2022-07-23T08:30:36;1.90;;;0.70;;
72060;SDS011;59925;52.136;5.420;2022-07-23T08:33:07;2.87;;;0.93;;
72060;SDS011;59925;52.136;5.420;2022-07-23T08:35:35;2.72;;;0.80;;
72060;SDS011;59925;52.136;5.420;2022-07-23T08:38:04;2.42;;;0.98;;
72060;SDS011;59925;52.136;5.420;2022-07-23T08:40:34;4.68;;;0.93;;
72060;SDS011;59925;52.136;5.420;2022-07-23T08:43:10;1.00;;;0.70;;
72060;SDS011;59925;52.136;5.420;2022-07-23T08:45:39;3.27;;;0.80;;
72060;SDS011;59925;52.136;5.420;2022-07-23T08:48:08;2.60;;;0.73;;
72060;SDS011;59925;52.136;5.420;2022-07-23T08:50:38;1.95;;;0.75;;
72060;SDS011;59925;52.136;5.420;2022-07-23T08:53:08;3.28;;;0.80;;
72060;SDS011;59925;52.136;5.420;2022-07-23T08:55:35;2.05;;;0.50;;
72060;SDS011;59925;52.136;5.420;2022-07-23T08:58:02;2.53;;;0.70;;
72060;SDS011;59925;52.136;5.420;2022-07-23T09:00:29;2.25;;;0.60;;
72060;SDS011;59925;52.136;5.420;2022-07-23T09:02:55;2.45;;;0.90;;
72060;SDS011;59925;52.136;5.420;2022-07-23T09:05:22;1.70;;;0.73;;
72060;SDS011;59925;52.136;5.420;2022-07-23T09:18:46;0.95;;;0.77;;
72060;SDS011;59925;52.136;5.420;2022-07-23T09:21:16;1.58;;;0.73;;
72060;SDS011;59925;52.136;5.420;2022-07-23T09:23:59;2.10;;;1.10;;
72060;SDS011;59925;52.136;5.420;2022-07-23T09:29:03;3.65;;;1.10;;
72060;SDS011;59925;52.136;5.420;2022-07-23T09:31:31;1.08;;;0.98;;
72060;SDS011;59925;52.136;5.420;2022-07-23T09:34:18;2.85;;;1.15;;
72060;SDS011;59925;52.136;5.420;2022-07-23T09:36:49;1.70;;;0.63;;
72060;SDS011;59925;52.136;5.420;2022-07-23T09:39:28;2.35;;;0.75;;
72060;SDS011;59925;52.136;5.420;2022-07-23T09:41:57;3.25;;;0.93;;
72060;SDS011;59925;52.136;5.420;2022-07-23T09:44:40;2.33;;;1.20;;
72060;SDS011;59925;52.136;5.420;2022-07-23T09:47:11;2.65;;;1.08;;
72060;SDS011;59925;52.136;5.420;2022-07-23T09:49:37;2.03;;;0.90;;
72060;SDS011;59925;52.136;5.420;2022-07-23T09:52:04;1.95;;;0.82;;
72060;SDS011;59925;52.136;5.420;2022-07-23T09:54:32;1.85;;;0.90;;
72060;SDS011;59925;52.136;5.420;2022-07-23T09:57:10;2.10;;;1.10;;
72060;SDS011;59925;52.136;5.420;2022-07-23T09:59:42;2.10;;;1.02;;
72060;SDS011;59925;52.136;5.420;2022-07-23T10:02:11;3.00;;;1.00;;
72060;SDS011;59925;52.136;5.420;2022-07-23T10:04:39;2.10;;;0.90;;
72060;SDS011;59925;52.136;5.420;2022-07-23T10:07:07;2.15;;;0.70;;
72060;SDS011;59925;52.136;5.420;2022-07-23T10:09:37;2.33;;;0.90;;
72060;SDS011;59925;52.136;5.420;2022-07-23T10:12:08;1.35;;;0.90;;
72060;SDS011;59925;52.136;5.420;2022-07-23T10:14:57;4.73;;;0.80;;
72060;SDS011;59925;52.136;5.420;2022-07-23T10:17:24;4.60;;;0.70;;
72060;SDS011;59925;52.136;5.420;2022-07-23T10:19:50;1.38;;;0.75;;
72060;SDS011;59925;52.136;5.420;2022-07-23T10:22:24;3.05;;;0.77;;
72060;SDS011;59925;52.136;5.420;2022-07-23T10:25:05;1.88;;;0.90;;
72060;SDS011;59925;52.136;5.420;2022-07-23T10:36:15;2.15;;;1.00;;
72060;SDS011;59925;52.136;5.420;2022-07-23T10:38:53;1.65;;;0.93;;
72060;SDS011;59925;52.136;5.420;2022-07-23T10:41:32;1.93;;;1.00;;
72060;SDS011;59925;52.136;5.420;2022-07-23T10:44:15;2.22;;;0.90;;
72060;SDS011;59925;52.136;5.420;2022-07-23T10:46:59;2.45;;;0.82;;
72060;SDS011;59925;52.136;5.420;2022-07-23T10:49:45;1.83;;;0.80;;
72060;SDS011;59925;52.136;5.420;2022-07-23T10:54:41;2.27;;;1.17;;
72060;SDS011;59925;52.136;5.420;2022-07-23T10:57:10;1.10;;;0.90;;
72060;SDS011;59925;52.136;5.420;2022-07-23T11:02:33;3.78;;;0.90;;
72060;SDS011;59925;52.136;5.420;2022-07-23T11:05:01;1.60;;;1.00;;
72060;SDS011;59925;52.136;5.420;2022-07-23T11:07:30;3.07;;;1.17;;
72060;SDS011;59925;52.136;5.420;2022-07-23T11:09:56;1.98;;;1.10;;
72060;SDS011;59925;52.136;5.420;2022-07-23T11:17:23;3.30;;;1.35;;
72060;SDS011;59925;52.136;5.420;2022-07-23T11:22:35;2.75;;;1.23;;
72060;SDS011;59925;52.136;5.420;2022-07-23T11:25:05;2.67;;;1.08;;
72060;SDS011;59925;52.136;5.420;2022-07-23T11:27:51;2.50;;;1.35;;
72060;SDS011;59925;52.136;5.420;2022-07-23T11:33:39;1.83;;;1.23;;
72060;SDS011;59925;52.136;5.420;2022-07-23T11:35:40;3.30;;;1.50;;
72060;SDS011;59925;52.136;5.420;2022-07-23T11:40:48;2.47;;;1.27;;
72060;SDS011;59925;52.136;5.420;2022-07-23T11:43:17;1.92;;;1.17;;
72060;SDS011;59925;52.136;5.420;2022-07-23T11:45:45;2.33;;;1.40;;
72060;SDS011;59925;52.136;5.420;2022-07-23T11:48:18;1.83;;;1.10;;
72060;SDS011;59925;52.136;5.420;2022-07-23T11:50:49;1.90;;;1.35;;
72060;SDS011;59925;52.136;5.420;2022-07-23T11:55:54;2.35;;;1.40;;
72060;SDS011;59925;52.136;5.420;2022-07-23T11:58:31;2.83;;;1.40;;
72060;SDS011;59925;52.136;5.420;2022-07-23T12:00:58;1.50;;;1.20;;
72060;SDS011;59925;52.136;5.420;2022-07-23T12:03:25;2.72;;;1.50;;
72060;SDS011;59925;52.136;5.420;2022-07-23T12:05:56;3.13;;;1.27;;
72060;SDS011;59925;52.136;5.420;2022-07-23T12:08:23;1.60;;;1.40;;
72060;SDS011;59925;52.136;5.420;2022-07-23T12:10:50;1.70;;;1.47;;
72060;SDS011;59925;52.136;5.420;2022-07-23T12:13:18;2.05;;;1.35;;
72060;SDS011;59925;52.136;5.420;2022-07-23T12:15:50;2.28;;;1.30;;
72060;SDS011;59925;52.136;5.420;2022-07-23T12:18:19;1.83;;;1.42;;
72060;SDS011;59925;52.136;5.420;2022-07-23T12:20:48;2.90;;;1.35;;
72060;SDS011;59925;52.136;5.420;2022-07-23T12:23:17;2.57;;;1.50;;
72060;SDS011;59925;52.136;5.420;2022-07-23T12:25:47;3.22;;;1.30;;
72060;SDS011;59925;52.136;5.420;2022-07-23T12:28:18;2.17;;;1.40;;
72060;SDS011;59925;52.136;5.420;2022-07-23T12:30:53;1.50;;;1.40;;
72060;SDS011;59925;52.136;5.420;2022-07-23T12:35:50;2.57;;;1.30;;
72060;SDS011;59925;52.136;5.420;2022-07-23T12:38:19;3.28;;;1.45;;
72060;SDS011;59925;52.136;5.420;2022-07-23T12:40:48;2.90;;;1.35;;
72060;SDS011;59925;52.136;5.420;2022-07-23T12:43:31;2.85;;;1.33;;
72060;SDS011;59925;52.136;5.420;2022-07-23T12:46:06;2.17;;;1.50;;
72060;SDS011;59925;52.136;5.420;2022-07-23T12:48:37;3.23;;;1.50;;
72060;SDS011;59925;52.136;5.420;2022-07-23T12:51:06;4.22;;;1.40;;
72060;SDS011;59925;52.136;5.420;2022-07-23T12:53:44;1.60;;;1.50;;
72060;SDS011;59925;52.136;5.420;2022-07-23T12:56:14;2.38;;;1.65;;
72060;SDS011;59925;52.136;5.420;2022-07-23T12:58:47;1.50;;;1.35;;
72060;SDS011;59925;52.136;5.420;2022-07-23T13:01:28;1.87;;;1.40;;
72060;SDS011;59925;52.136;5.420;2022-07-23T13:04:07;3.17;;;1.30;;
72060;SDS011;59925;52.136;5.420;2022-07-23T13:06:40;2.22;;;1.45;;
72060;SDS011;59925;52.136;5.420;2022-07-23T13:09:12;2.78;;;1.42;;
72060;SDS011;59925;52.136;5.420;2022-07-23T13:11:41;2.53;;;1.50;;
72060;SDS011;59925;52.136;5.420;2022-07-23T13:14:08;2.10;;;1.60;;
72060;SDS011;59925;52.136;5.420;2022-07-23T13:16:35;3.05;;;1.65;;
72060;SDS011;59925;52.136;5.420;2022-07-23T13:19:03;3.17;;;1.50;;
72060;SDS011;59925;52.136;5.420;2022-07-23T13:21:36;2.90;;;1.50;;
72060;SDS011;59925;52.136;5.420;2022-07-23T13:24:03;3.33;;;1.33;;
72060;SDS011;59925;52.136;5.420;2022-07-23T13:26:34;2.17;;;1.53;;
72060;SDS011;59925;52.136;5.420;2022-07-23T13:29:01;3.13;;;1.40;;
72060;SDS011;59925;52.136;5.420;2022-07-23T13:31:28;2.28;;;1.40;;
72060;SDS011;59925;52.136;5.420;2022-07-23T13:33:54;3.03;;;1.60;;
72060;SDS011;59925;52.136;5.420;2022-07-23T13:36:21;3.00;;;1.52;;
72060;SDS011;59925;52.136;5.420;2022-07-23T13:38:47;2.90;;;1.50;;
72060;SDS011;59925;52.136;5.420;2022-07-23T13:41:15;1.50;;;1.23;;
72060;SDS011;59925;52.136;5.420;2022-07-23T13:43:44;2.30;;;1.60;;
72060;SDS011;59925;52.136;5.420;2022-07-23T13:46:12;4.18;;;1.77;;
72060;SDS011;59925;52.136;5.420;2022-07-23T13:48:39;2.08;;;1.48;;
72060;SDS011;59925;52.136;5.420;2022-07-23T13:51:06;1.80;;;1.33;;
72060;SDS011;59925;52.136;5.420;2022-07-23T13:53:36;2.10;;;1.50;;
72060;SDS011;59925;52.136;5.420;2022-07-23T13:56:02;2.33;;;1.83;;
72060;SDS011;59925;52.136;5.420;2022-07-23T13:58:29;4.47;;;1.58;;
72060;SDS011;59925;52.136;5.420;2022-07-23T14:00:56;2.47;;;1.55;;
72060;SDS011;59925;52.136;5.420;2022-07-23T14:03:23;2.93;;;1.70;;
72060;SDS011;59925;52.136;5.420;2022-07-23T14:05:50;3.13;;;1.70;;
72060;SDS011;59925;52.136;5.420;2022-07-23T14:08:21;3.03;;;1.60;;
72060;SDS011;59925;52.136;5.420;2022-07-23T14:10:48;2.03;;;1.40;;
72060;SDS011;59925;52.136;5.420;2022-07-23T14:13:15;3.08;;;1.50;;
72060;SDS011;59925;52.136;5.420;2022-07-23T14:15:41;2.70;;;1.30;;
72060;SDS011;59925;52.136;5.420;2022-07-23T14:18:08;2.40;;;1.90;;
72060;SDS011;59925;52.136;5.420;2022-07-23T14:20:35;2.65;;;1.75;;
72060;SDS011;59925;52.136;5.420;2022-07-23T14:23:03;1.88;;;1.50;;
72060;SDS011;59925;52.136;5.420;2022-07-23T14:25:31;2.97;;;1.33;;
72060;SDS011;59925;52.136;5.420;2022-07-23T14:27:59;2.30;;;1.40;;
72060;SDS011;59925;52.136;5.420;2022-07-23T14:30:25;3.20;;;1.63;;
72060;SDS011;59925;52.136;5.420;2022-07-23T14:32:59;3.03;;;1.58;;
72060;SDS011;59925;52.136;5.420;2022-07-23T14:35:26;2.45;;;1.30;;
72060;SDS011;59925;52.136;5.420;2022-07-23T14:37:53;2.05;;;1.73;;
72060;SDS011;59925;52.136;5.420;2022-07-23T14:40:20;2.33;;;1.70;;
72060;SDS011;59925;52.136;5.420;2022-07-23T14:42:48;3.75;;;1.40;;
72060;SDS011;59925;52.136;5.420;2022-07-23T14:45:14;2.65;;;1.65;;
72060;SDS011;59925;52.136;5.420;2022-07-23T14:47:41;2.97;;;1.50;;
72060;SDS011;59925;52.136;5.420;2022-07-23T14:50:12;3.35;;;1.65;;
72060;SDS011;59925;52.136;5.420;2022-07-23T14:52:38;2.20;;;1.33;;
72060;SDS011;59925;52.136;5.420;2022-07-23T14:55:05;2.47;;;1.50;;
72060;SDS011;59925;52.136;5.420;2022-07-23T14:57:32;2.97;;;1.63;;
72060;SDS011;59925;52.136;5.420;2022-07-23T14:59:59;2.30;;;1.60;;
72060;SDS011;59925;52.136;5.420;2022-07-23T15:02:25;2.30;;;1.50;;
72060;SDS011;59925;52.136;5.420;2022-07-23T15:04:52;3.30;;;1.70;;
72060;SDS011;59925;52.136;5.420;2022-07-23T15:07:19;2.88;;;1.55;;
72060;SDS011;59925;52.136;5.420;2022-07-23T15:09:46;2.28;;;1.52;;
72060;SDS011;59925;52.136;5.420;2022-07-23T15:12:13;2.38;;;1.50;;
72060;SDS011;59925;52.136;5.420;2022-07-23T15:14:40;2.35;;;1.58;;
72060;SDS011;59925;52.136;5.420;2022-07-23T15:17:06;3.57;;;1.40;;
72060;SDS011;59925;52.136;5.420;2022-07-23T15:19:33;2.55;;;1.50;;
72060;SDS011;59925;52.136;5.420;2022-07-23T15:21:59;2.22;;;1.60;;
72060;SDS011;59925;52.136;5.420;2022-07-23T15:24:27;2.50;;;1.80;;
72060;SDS011;59925;52.136;5.420;2022-07-23T15:26:54;2.10;;;1.65;;
72060;SDS011;59925;52.136;5.420;2022-07-23T15:29:20;1.70;;;1.50;;
72060;SDS011;59925;52.136;5.420;2022-07-23T15:31:47;2.95;;;1.40;;
72060;SDS011;59925;52.136;5.420;2022-07-23T15:34:22;3.55;;;2.00;;
72060;SDS011;59925;52.136;5.420;2022-07-23T15:36:48;1.88;;;1.52;;
72060;SDS011;59925;52.136;5.420;2022-07-23T15:39:17;3.20;;;1.88;;